This is the latest recevied weather packets stored in our database for station/object DG4LX-10. If no packets are shown the sender has not sent any weather packets the latest 10 day(s).
| Time | Temp. | Humidity | Pressure | Rain* | Wind** | Luminosity | Snow |
|---|---|---|---|---|---|---|---|
| 1787847723 | 28.89° C | 30% | 1015.1 hPa | - | - | - | - |
| 1787845923 | 29.44° C | 30% | 1015.1 hPa | - | - | - | - |
| 1787844123 | 29.44° C | 29% | 1015.5 hPa | - | - | - | - |
| 1787842322 | 29.44° C | 29% | 1015.5 hPa | - | - | - | - |
| 1787840522 | 29.44° C | 28% | 1015.9 hPa | - | - | - | - |
| 1787838722 | 29.44° C | 28% | 1015.8 hPa | - | - | - | - |
| 1787836922 | 29.44° C | 28% | 1016 hPa | - | - | - | - |
| 1787835122 | 30° C | 28% | 1016.4 hPa | - | - | - | - |
| 1787833322 | 30° C | 27% | 1016.6 hPa | - | - | - | - |
| 1787831522 | 30.56° C | 26% | 1017 hPa | - | - | - | - |
| 1787829722 | 31.11° C | 25% | 1017.3 hPa | - | - | - | - |
| 1787827922 | 31.67° C | 24% | 1017.6 hPa | - | - | - | - |
| 1787826122 | 32.22° C | 23% | 1017.7 hPa | - | - | - | - |
| 1787824322 | 32.78° C | 22% | 1018.2 hPa | - | - | - | - |
| 1787822522 | 33.89° C | 20% | 1018.9 hPa | - | - | - | - |
| 1787820722 | 34.44° C | 20% | 1019 hPa | - | - | - | - |
| 1787818921 | 33.89° C | 20% | 1019.5 hPa | - | - | - | - |
| 1787817121 | 33.89° C | 20% | 1019.6 hPa | - | - | - | - |
| 1787815321 | 33.33° C | 20% | 1019.9 hPa | - | - | - | - |
| 1787813521 | 32.78° C | 20% | 1019.9 hPa | - | - | - | - |
| 1787811721 | 31.67° C | 21% | 1020 hPa | - | - | - | - |
| 1787809921 | 30° C | 23% | 1020.3 hPa | - | - | - | - |
| 1787808121 | 27.78° C | 26% | 1020.3 hPa | - | - | - | - |
| 1787806321 | 25.56° C | 29% | 1020.5 hPa | - | - | - | - |
| 1787804521 | 25° C | 30% | 1020.5 hPa | - | - | - | - |
* Rain since midnight (hover to see other rain measurements)
** Current wind speed in m/s (hover to see current wind gust speed)